Karen C — 2DCC7 — position and weather

sailwx.info

Track history (hours):
 
Tides and Currents Weather Stations Pressure Air Temp Water Temp Dewpoint Dewpoint Depression Visibility Wind Speed Wind Dir Waves Ship Positions

Karen C

Last reported at 2018-Jun-21 01:59 UTC. Time now 2018-Jun-25 17:35 UTC.
Position N 39°17' W 009°51'.

Length 105 m; draft 4.6 m.

Type: Cargo ship. MMSI: 235077715.

Date/timePositionNaut miles runAvg speedWind from/ knotsBaromVisibWave heightAir tempDewpointWater temp
2018-Jun-21 01:59N 39°17' W 009°51'511.1
2018-Jun-21 01:31N 39°12' W 009°51'611.3
2018-Jun-21 01:00N 39°06' W 009°51'611.1
2018-Jun-21 00:30N 39°01' W 009°51'611.1
2018-Jun-21 00:00N 38°55' W 009°51'511.0
2018-Jun-20 23:30N 38°49' W 009°51'510.9
2018-Jun-20 23:00N 38°44' W 009°51'510.4
2018-Jun-20 22:30N 38°39' W 009°49'510.5
2018-Jun-20 22:01N 38°34' W 009°47'510.8
2018-Jun-20 21:30N 38°29' W 009°46'510.5
2018-Jun-20 21:00N 38°24' W 009°45'510.3
2018-Jun-20 20:30N 38°19' W 009°44'610.4
2018-Jun-20 19:56N 38°13' W 009°42'510.6
2018-Jun-20 19:28N 38°08' W 009°41'511.1
2018-Jun-20 19:00N 38°03' W 009°39'611.3
2018-Jun-20 18:30N 37°57' W 009°38'611.3
2018-Jun-20 18:00N 37°52' W 009°36'611.1
2018-Jun-20 17:27N 37°46' W 009°34'711.2
2018-Jun-20 16:49N 37°39' W 009°32'  
2018-Jun-14 14:52N 35°59' W 005°31'3 8.0
2018-Jun-14 14:27N 36°00' W 005°27'4 7.5
2018-Jun-14 13:56N 36°03' W 005°24'4 8.7
2018-Jun-14 13:30N 36°07' W 005°23'4 0.7
2018-Jun-14 07:57N 36°05' W 005°19'227 9.8
2018-Jun-13 08:52N 37°21' W 000°52'410.8
2018-Jun-13 08:30N 37°23' W 000°49'510.8
2018-Jun-13 08:00N 37°27' W 000°44'610.8
2018-Jun-13 07:26N 37°31' W 000°38'510.8
2018-Jun-13 07:00N 37°34' W 000°33'511.0
2018-Jun-13 06:30N 37°39' W 000°30'611.0
2018-Jun-13 06:00N 37°43' W 000°26'511.1
2018-Jun-13 05:30N 37°48' W 000°22'611.3
2018-Jun-13 05:00N 37°53' W 000°19'611.2
2018-Jun-13 04:28N 37°58' W 000°15'511.2
2018-Jun-13 04:00N 38°02' W 000°11'  
Track history (hours):
 
Tides and Currents Weather Stations Pressure Air Temp Water Temp Dewpoint Dewpoint Depression Visibility Wind Speed Wind Dir Waves Ship Positions

Karen C

Last reported at 2018-Jun-21 01:59 UTC. Time now 2018-Jun-25 17:35 UTC.
Position N 39°17' W 009°51'.

Length 105 m; draft 4.6 m.

Type: Cargo ship. MMSI: 235077715.

Date/timePositionNaut miles runAvg speedWind from/ knotsBaromVisibWave heightAir tempDewpointWater temp
2018-Jun-21 01:59N 39°17' W 009°51'511.1
2018-Jun-21 01:31N 39°12' W 009°51'611.3
2018-Jun-21 01:00N 39°06' W 009°51'611.1
2018-Jun-21 00:30N 39°01' W 009°51'611.1
2018-Jun-21 00:00N 38°55' W 009°51'511.0
2018-Jun-20 23:30N 38°49' W 009°51'510.9
2018-Jun-20 23:00N 38°44' W 009°51'510.4
2018-Jun-20 22:30N 38°39' W 009°49'510.5
2018-Jun-20 22:01N 38°34' W 009°47'510.8
2018-Jun-20 21:30N 38°29' W 009°46'510.5
2018-Jun-20 21:00N 38°24' W 009°45'510.3
2018-Jun-20 20:30N 38°19' W 009°44'610.4
2018-Jun-20 19:56N 38°13' W 009°42'510.6
2018-Jun-20 19:28N 38°08' W 009°41'511.1
2018-Jun-20 19:00N 38°03' W 009°39'611.3
2018-Jun-20 18:30N 37°57' W 009°38'611.3
2018-Jun-20 18:00N 37°52' W 009°36'611.1
2018-Jun-20 17:27N 37°46' W 009°34'711.2
2018-Jun-20 16:49N 37°39' W 009°32'  
2018-Jun-14 14:52N 35°59' W 005°31'3 8.0
2018-Jun-14 14:27N 36°00' W 005°27'4 7.5
2018-Jun-14 13:56N 36°03' W 005°24'4 8.7
2018-Jun-14 13:30N 36°07' W 005°23'4 0.7
2018-Jun-14 07:57N 36°05' W 005°19'227 9.8
2018-Jun-13 08:52N 37°21' W 000°52'410.8
2018-Jun-13 08:30N 37°23' W 000°49'510.8
2018-Jun-13 08:00N 37°27' W 000°44'610.8
2018-Jun-13 07:26N 37°31' W 000°38'510.8
2018-Jun-13 07:00N 37°34' W 000°33'511.0
2018-Jun-13 06:30N 37°39' W 000°30'611.0
2018-Jun-13 06:00N 37°43' W 000°26'511.1
2018-Jun-13 05:30N 37°48' W 000°22'611.3
2018-Jun-13 05:00N 37°53' W 000°19'611.2
2018-Jun-13 04:28N 37°58' W 000°15'511.2
2018-Jun-13 04:00N 38°02' W 000°11'  

Dump ship's entire track history